sensor_id;sensor_type;location;lat;lon;timestamp;pressure;altitude;pressure_sealevel;temperature;humidity
46598;BME280;32318;48.858;8.252;2023-05-01T00:07:11;100200.97;;;11.28;69.86
46598;BME280;32318;48.858;8.252;2023-05-01T00:15:11;100197.97;;;11.31;70.37
46598;BME280;32318;48.858;8.252;2023-05-01T00:23:12;100189.28;;;11.37;69.21
46598;BME280;32318;48.858;8.252;2023-05-01T00:31:12;100185.28;;;11.33;68.28
46598;BME280;32318;48.858;8.252;2023-05-01T00:39:12;100166.09;;;11.21;69.49
46598;BME280;32318;48.858;8.252;2023-05-01T00:47:13;100168.44;;;11.16;70.11
46598;BME280;32318;48.858;8.252;2023-05-01T00:55:13;100152.06;;;11.19;68.13
46598;BME280;32318;48.858;8.252;2023-05-01T01:03:16;100147.94;;;11.08;69.75
46598;BME280;32318;48.858;8.252;2023-05-01T01:11:29;100138.22;;;11.16;71.09
46598;BME280;32318;48.858;8.252;2023-05-01T01:36:38;100115.75;;;10.77;72.15
46598;BME280;32318;48.858;8.252;2023-05-01T01:44:42;100125.56;;;10.85;72.57
46598;BME280;32318;48.858;8.252;2023-05-01T01:52:48;100117.22;;;10.96;71.15
46598;BME280;32318;48.858;8.252;2023-05-01T02:00:49;100114.53;;;10.96;70.82
46598;BME280;32318;48.858;8.252;2023-05-01T02:08:50;100107.06;;;10.83;71.21
46598;BME280;32318;48.858;8.252;2023-05-01T02:16:51;100097.06;;;10.69;71.58
46598;BME280;32318;48.858;8.252;2023-05-01T02:24:53;100089.88;;;10.61;70.20
46598;BME280;32318;48.858;8.252;2023-05-01T02:32:55;100087.91;;;10.46;70.97
46598;BME280;32318;48.858;8.252;2023-05-01T02:40:56;100076.38;;;10.38;71.66
46598;BME280;32318;48.858;8.252;2023-05-01T02:48:59;100072.50;;;10.24;72.14
46598;BME280;32318;48.858;8.252;2023-05-01T02:57:03;100065.47;;;9.98;73.41
46598;BME280;32318;48.858;8.252;2023-05-01T03:05:04;100062.16;;;9.96;73.50
46598;BME280;32318;48.858;8.252;2023-05-01T03:13:05;100054.78;;;9.89;73.43
46598;BME280;32318;48.858;8.252;2023-05-01T03:21:05;100058.81;;;9.85;75.48
46598;BME280;32318;48.858;8.252;2023-05-01T03:29:05;100049.66;;;10.04;74.36
46598;BME280;32318;48.858;8.252;2023-05-01T03:37:06;100052.81;;;10.00;75.86
46598;BME280;32318;48.858;8.252;2023-05-01T03:45:06;100042.31;;;10.07;74.35
46598;BME280;32318;48.858;8.252;2023-05-01T03:53:07;100042.50;;;10.05;74.59
46598;BME280;32318;48.858;8.252;2023-05-01T04:01:08;100035.81;;;10.01;76.32
46598;BME280;32318;48.858;8.252;2023-05-01T04:09:08;100038.84;;;10.14;75.55
46598;BME280;32318;48.858;8.252;2023-05-01T04:17:08;100045.16;;;10.22;75.93
46598;BME280;32318;48.858;8.252;2023-05-01T04:25:09;100044.50;;;10.28;76.44
46598;BME280;32318;48.858;8.252;2023-05-01T04:33:09;100044.66;;;10.34;76.66
46598;BME280;32318;48.858;8.252;2023-05-01T04:41:10;100052.69;;;10.43;75.59
46598;BME280;32318;48.858;8.252;2023-05-01T04:49:11;100052.53;;;10.44;76.31
46598;BME280;32318;48.858;8.252;2023-05-01T04:57:11;100065.19;;;10.50;75.55
46598;BME280;32318;48.858;8.252;2023-05-01T05:05:11;100059.69;;;10.60;76.25
46598;BME280;32318;48.858;8.252;2023-05-01T05:13:11;100056.50;;;10.81;74.86
46598;BME280;32318;48.858;8.252;2023-05-01T05:21:12;100065.63;;;10.95;75.47
46598;BME280;32318;48.858;8.252;2023-05-01T05:29:12;100065.41;;;11.13;74.87
46598;BME280;32318;48.858;8.252;2023-05-01T05:37:13;100073.41;;;11.22;74.20
46598;BME280;32318;48.858;8.252;2023-05-01T05:45:14;100075.56;;;11.26;74.98
46598;BME280;32318;48.858;8.252;2023-05-01T05:53:14;100079.72;;;11.29;75.40
46598;BME280;32318;48.858;8.252;2023-05-01T06:01:15;100091.38;;;11.36;75.65
46598;BME280;32318;48.858;8.252;2023-05-01T06:09:15;100088.38;;;11.39;75.32
46598;BME280;32318;48.858;8.252;2023-05-01T06:17:18;100083.31;;;11.44;75.60
46598;BME280;32318;48.858;8.252;2023-05-01T06:25:18;100079.66;;;11.45;75.15
46598;BME280;32318;48.858;8.252;2023-05-01T06:33:18;100093.63;;;11.56;74.91
46598;BME280;32318;48.858;8.252;2023-05-01T06:41:18;100098.97;;;11.56;74.76
46598;BME280;32318;48.858;8.252;2023-05-01T06:49:19;100115.00;;;11.64;75.61
46598;BME280;32318;48.858;8.252;2023-05-01T06:57:19;100111.59;;;11.79;75.51
46598;BME280;32318;48.858;8.252;2023-05-01T07:05:19;100120.22;;;11.89;75.18
46598;BME280;32318;48.858;8.252;2023-05-01T07:13:20;100117.66;;;11.96;74.86
46598;BME280;32318;48.858;8.252;2023-05-01T07:21:20;100124.88;;;12.03;74.25
46598;BME280;32318;48.858;8.252;2023-05-01T07:29:20;100124.44;;;12.15;73.63
46598;BME280;32318;48.858;8.252;2023-05-01T07:37:21;100116.78;;;12.35;73.02
46598;BME280;32318;48.858;8.252;2023-05-01T07:45:21;100111.03;;;12.61;72.15
46598;BME280;32318;48.858;8.252;2023-05-01T07:53:21;100114.97;;;12.74;72.01
46598;BME280;32318;48.858;8.252;2023-05-01T08:01:22;100115.16;;;12.87;71.52
46598;BME280;32318;48.858;8.252;2023-05-01T08:09:22;100126.66;;;12.96;71.53
46598;BME280;32318;48.858;8.252;2023-05-01T08:17:22;100129.81;;;12.99;71.38
46598;BME280;32318;48.858;8.252;2023-05-01T08:25:23;100136.75;;;13.09;71.30
46598;BME280;32318;48.858;8.252;2023-05-01T08:33:23;100127.31;;;13.13;71.51
46598;BME280;32318;48.858;8.252;2023-05-01T08:41:24;100120.28;;;13.27;71.29
46598;BME280;32318;48.858;8.252;2023-05-01T08:49:27;100108.47;;;13.51;70.87
46598;BME280;32318;48.858;8.252;2023-05-01T08:57:29;100112.44;;;13.55;72.07
46598;BME280;32318;48.858;8.252;2023-05-01T09:05:31;100107.72;;;13.42;73.35
46598;BME280;32318;48.858;8.252;2023-05-01T09:13:32;100119.31;;;13.43;74.15
46598;BME280;32318;48.858;8.252;2023-05-01T09:21:32;100113.06;;;13.72;72.71
46598;BME280;32318;48.858;8.252;2023-05-01T09:29:42;100119.19;;;14.03;71.49
46598;BME280;32318;48.858;8.252;2023-05-01T09:37:48;100123.56;;;14.25;70.36
46598;BME280;32318;48.858;8.252;2023-05-01T09:46:07;100126.19;;;14.40;69.59
46598;BME280;32318;48.858;8.252;2023-05-01T09:54:17;100114.72;;;14.75;69.55
46598;BME280;32318;48.858;8.252;2023-05-01T10:02:27;100117.38;;;14.97;67.14
46598;BME280;32318;48.858;8.252;2023-05-01T10:10:28;100118.47;;;15.09;67.46
46598;BME280;32318;48.858;8.252;2023-05-01T10:18:28;100109.97;;;15.41;67.04
46598;BME280;32318;48.858;8.252;2023-05-01T10:26:31;100102.66;;;15.69;65.71
46598;BME280;32318;48.858;8.252;2023-05-01T10:34:39;100103.19;;;16.00;65.59
46598;BME280;32318;48.858;8.252;2023-05-01T10:43:19;100095.38;;;16.39;64.98
46598;BME280;32318;48.858;8.252;2023-05-01T10:51:25;100090.19;;;16.84;64.77
46598;BME280;32318;48.858;8.252;2023-05-01T11:00:09;100083.13;;;17.10;64.35
46598;BME280;32318;48.858;8.252;2023-05-01T11:24:42;100071.78;;;17.53;63.79
46598;BME280;32318;48.858;8.252;2023-05-01T11:32:44;100061.41;;;17.89;62.54
46598;BME280;32318;48.858;8.252;2023-05-01T11:40:53;100058.94;;;17.87;60.88
46598;BME280;32318;48.858;8.252;2023-05-01T11:49:00;100045.06;;;18.16;60.62
46598;BME280;32318;48.858;8.252;2023-05-01T11:57:01;100039.56;;;18.29;60.85
46598;BME280;32318;48.858;8.252;2023-05-01T12:05:15;100028.50;;;18.56;59.75
46598;BME280;32318;48.858;8.252;2023-05-01T12:13:16;100025.47;;;18.71;58.95
46598;BME280;32318;48.858;8.252;2023-05-01T12:21:16;100023.50;;;19.04;55.27
46598;BME280;32318;48.858;8.252;2023-05-01T12:29:17;100032.66;;;19.40;55.15
46598;BME280;32318;48.858;8.252;2023-05-01T12:37:17;100029.66;;;19.11;55.61
46598;BME280;32318;48.858;8.252;2023-05-01T12:45:17;100030.25;;;18.94;54.94
46598;BME280;32318;48.858;8.252;2023-05-01T12:53:18;100030.34;;;18.62;56.63
46598;BME280;32318;48.858;8.252;2023-05-01T13:01:26;100037.13;;;18.90;54.48
46598;BME280;32318;48.858;8.252;2023-05-01T13:09:28;100034.66;;;18.89;56.78
46598;BME280;32318;48.858;8.252;2023-05-01T13:17:31;100030.06;;;18.71;56.13
46598;BME280;32318;48.858;8.252;2023-05-01T13:25:32;100017.81;;;18.87;56.03
46598;BME280;32318;48.858;8.252;2023-05-01T13:33:32;100008.13;;;19.16;55.64
46598;BME280;32318;48.858;8.252;2023-05-01T13:41:32;100018.06;;;19.22;56.01
46598;BME280;32318;48.858;8.252;2023-05-01T13:49:39;100012.06;;;19.20;55.86
46598;BME280;32318;48.858;8.252;2023-05-01T13:57:39;100005.72;;;19.26;56.01
46598;BME280;32318;48.858;8.252;2023-05-01T14:05:41;100011.81;;;19.71;55.26
46598;BME280;32318;48.858;8.252;2023-05-01T14:13:45;100017.94;;;19.78;54.31
46598;BME280;32318;48.858;8.252;2023-05-01T14:21:46;100030.09;;;19.26;55.32
46598;BME280;32318;48.858;8.252;2023-05-01T14:29:48;100050.59;;;18.53;56.19
46598;BME280;32318;48.858;8.252;2023-05-01T14:37:49;100056.56;;;17.66;58.96
46598;BME280;32318;48.858;8.252;2023-05-01T14:45:49;100053.25;;;17.05;60.60
46598;BME280;32318;48.858;8.252;2023-05-01T14:53:50;100016.59;;;16.77;61.19
46598;BME280;32318;48.858;8.252;2023-05-01T15:01:50;100018.25;;;16.71;63.83
46598;BME280;32318;48.858;8.252;2023-05-01T15:09:51;100038.56;;;16.94;61.88
46598;BME280;32318;48.858;8.252;2023-05-01T15:17:51;100035.47;;;16.70;64.25
46598;BME280;32318;48.858;8.252;2023-05-01T15:25:52;100031.28;;;16.88;62.34
46598;BME280;32318;48.858;8.252;2023-05-01T15:33:52;100025.31;;;16.72;61.80
46598;BME280;32318;48.858;8.252;2023-05-01T15:41:52;100037.50;;;16.88;62.84
46598;BME280;32318;48.858;8.252;2023-05-01T15:49:52;100043.13;;;16.93;62.08
46598;BME280;32318;48.858;8.252;2023-05-01T15:57:53;100048.50;;;16.87;61.91
46598;BME280;32318;48.858;8.252;2023-05-01T16:05:53;100048.09;;;16.83;62.43
46598;BME280;32318;48.858;8.252;2023-05-01T16:13:55;100062.81;;;16.60;63.83
46598;BME280;32318;48.858;8.252;2023-05-01T16:21:55;100087.06;;;16.20;64.75
46598;BME280;32318;48.858;8.252;2023-05-01T16:29:55;100122.47;;;16.04;66.11
46598;BME280;32318;48.858;8.252;2023-05-01T16:37:58;100160.59;;;15.59;67.08
46598;BME280;32318;48.858;8.252;2023-05-01T16:45:58;100154.22;;;15.03;70.33
46598;BME280;32318;48.858;8.252;2023-05-01T16:53:58;100141.78;;;14.95;69.54
46598;BME280;32318;48.858;8.252;2023-05-01T17:01:59;100140.44;;;14.84;70.03
46598;BME280;32318;48.858;8.252;2023-05-01T17:09:59;100146.72;;;14.70;69.17
46598;BME280;32318;48.858;8.252;2023-05-01T17:18:00;100171.78;;;14.34;73.12
46598;BME280;32318;48.858;8.252;2023-05-01T17:26:00;100185.75;;;14.29;73.99
46598;BME280;32318;48.858;8.252;2023-05-01T17:34:00;100183.09;;;14.29;73.54
46598;BME280;32318;48.858;8.252;2023-05-01T17:42:00;100178.78;;;14.13;73.98
46598;BME280;32318;48.858;8.252;2023-05-01T17:50:03;100172.13;;;14.09;73.69
46598;BME280;32318;48.858;8.252;2023-05-01T17:58:03;100178.88;;;14.05;74.88
46598;BME280;32318;48.858;8.252;2023-05-01T18:06:06;100192.50;;;13.88;74.19
46598;BME280;32318;48.858;8.252;2023-05-01T18:14:06;100192.63;;;13.80;74.74
46598;BME280;32318;48.858;8.252;2023-05-01T18:22:06;100184.97;;;13.77;75.51
46598;BME280;32318;48.858;8.252;2023-05-01T18:30:07;100185.22;;;13.67;75.42
46598;BME280;32318;48.858;8.252;2023-05-01T18:38:09;100172.56;;;13.61;75.50
46598;BME280;32318;48.858;8.252;2023-05-01T18:46:09;100184.03;;;13.55;75.31
46598;BME280;32318;48.858;8.252;2023-05-01T18:54:09;100194.00;;;13.46;76.44
46598;BME280;32318;48.858;8.252;2023-05-01T19:02:10;100213.69;;;13.38;77.37
46598;BME280;32318;48.858;8.252;2023-05-01T19:10:10;100227.81;;;13.32;76.89
46598;BME280;32318;48.858;8.252;2023-05-01T19:18:10;100240.03;;;13.34;76.43
46598;BME280;32318;48.858;8.252;2023-05-01T19:26:10;100263.50;;;13.32;76.81
46598;BME280;32318;48.858;8.252;2023-05-01T19:34:12;100266.66;;;13.36;76.27
46598;BME280;32318;48.858;8.252;2023-05-01T19:42:13;100267.00;;;13.33;75.37
46598;BME280;32318;48.858;8.252;2023-05-01T19:50:16;100278.66;;;13.25;77.00
46598;BME280;32318;48.858;8.252;2023-05-01T19:58:17;100282.91;;;13.20;76.93
46598;BME280;32318;48.858;8.252;2023-05-01T20:06:17;100291.16;;;13.10;76.55
46598;BME280;32318;48.858;8.252;2023-05-01T20:14:18;100303.63;;;13.02;75.97
46598;BME280;32318;48.858;8.252;2023-05-01T20:22:18;100311.19;;;12.99;76.22
46598;BME280;32318;48.858;8.252;2023-05-01T20:30:18;100323.81;;;12.90;77.54
46598;BME280;32318;48.858;8.252;2023-05-01T20:38:19;100331.53;;;12.85;78.11
46598;BME280;32318;48.858;8.252;2023-05-01T20:46:20;100328.25;;;12.75;77.31
46598;BME280;32318;48.858;8.252;2023-05-01T20:54:21;100340.69;;;12.67;77.16
46598;BME280;32318;48.858;8.252;2023-05-01T21:02:22;100352.91;;;12.62;77.75
46598;BME280;32318;48.858;8.252;2023-05-01T21:10:22;100357.19;;;12.48;77.91
46598;BME280;32318;48.858;8.252;2023-05-01T21:18:23;100366.09;;;12.40;78.24
46598;BME280;32318;48.858;8.252;2023-05-01T21:26:27;100372.94;;;12.43;78.12
46598;BME280;32318;48.858;8.252;2023-05-01T21:34:28;100369.44;;;12.42;77.74
46598;BME280;32318;48.858;8.252;2023-05-01T21:42:30;100365.94;;;12.33;77.70
46598;BME280;32318;48.858;8.252;2023-05-01T21:50:35;100376.16;;;12.30;78.61
46598;BME280;32318;48.858;8.252;2023-05-01T21:58:37;100379.84;;;12.29;78.29
46598;BME280;32318;48.858;8.252;2023-05-01T22:06:37;100383.38;;;12.21;79.07
46598;BME280;32318;48.858;8.252;2023-05-01T22:14:37;100379.72;;;12.22;78.95
46598;BME280;32318;48.858;8.252;2023-05-01T22:22:40;100386.09;;;12.13;78.78
46598;BME280;32318;48.858;8.252;2023-05-01T22:30:40;100399.13;;;12.07;78.58
46598;BME280;32318;48.858;8.252;2023-05-01T22:38:43;100403.47;;;12.00;79.57
46598;BME280;32318;48.858;8.252;2023-05-01T22:46:43;100414.19;;;12.00;79.05
46598;BME280;32318;48.858;8.252;2023-05-01T22:54:43;100422.88;;;12.02;79.01
46598;BME280;32318;48.858;8.252;2023-05-01T23:02:43;100416.16;;;11.90;79.64
46598;BME280;32318;48.858;8.252;2023-05-01T23:10:44;100432.72;;;11.85;79.93
46598;BME280;32318;48.858;8.252;2023-05-01T23:18:45;100429.56;;;11.73;79.12
46598;BME280;32318;48.858;8.252;2023-05-01T23:26:45;100429.72;;;11.64;79.40
46598;BME280;32318;48.858;8.252;2023-05-01T23:34:46;100437.56;;;11.65;79.81
46598;BME280;32318;48.858;8.252;2023-05-01T23:42:46;100444.41;;;11.59;79.86
46598;BME280;32318;48.858;8.252;2023-05-01T23:50:47;100451.44;;;11.60;80.02
46598;BME280;32318;48.858;8.252;2023-05-01T23:58:47;100453.28;;;11.60;80.14
